sensor_id;sensor_type;location;lat;lon;timestamp;pressure;altitude;pressure_sealevel;temperature;humidity
71770;BME280;66386;52.122;5.420;2023-09-12T00:00:37;101411.19;;;19.65;91.17
71770;BME280;66386;52.122;5.420;2023-09-12T00:03:04;101407.00;;;19.62;91.36
71770;BME280;66386;52.122;5.420;2023-09-12T00:05:30;101408.78;;;19.62;91.08
71770;BME280;66386;52.122;5.420;2023-09-12T00:07:57;101409.19;;;19.56;91.12
71770;BME280;66386;52.122;5.420;2023-09-12T00:10:23;101408.53;;;19.52;91.34
71770;BME280;66386;52.122;5.420;2023-09-12T00:12:50;101400.19;;;19.47;91.27
71770;BME280;66386;52.122;5.420;2023-09-12T00:15:16;101394.22;;;19.45;91.75
71770;BME280;66386;52.122;5.420;2023-09-12T00:17:43;101382.34;;;19.41;91.61
71770;BME280;66386;52.122;5.420;2023-09-12T00:20:10;101389.44;;;19.39;91.67
71770;BME280;66386;52.122;5.420;2023-09-12T00:22:37;101385.25;;;19.36;91.78
71770;BME280;66386;52.122;5.420;2023-09-12T00:25:04;101392.22;;;19.35;91.87
71770;BME280;66386;52.122;5.420;2023-09-12T00:27:31;101382.13;;;19.31;91.90
71770;BME280;66386;52.122;5.420;2023-09-12T00:29:57;101382.41;;;19.26;91.89
71770;BME280;66386;52.122;5.420;2023-09-12T00:32:24;101375.84;;;19.21;91.98
71770;BME280;66386;52.122;5.420;2023-09-12T00:34:50;101383.94;;;19.16;91.62
71770;BME280;66386;52.122;5.420;2023-09-12T00:37:17;101381.44;;;19.14;91.97
71770;BME280;66386;52.122;5.420;2023-09-12T00:39:43;101376.41;;;19.11;92.06
71770;BME280;66386;52.122;5.420;2023-09-12T00:42:10;101377.66;;;19.06;92.02
71770;BME280;66386;52.122;5.420;2023-09-12T00:44:36;101383.03;;;19.02;92.11
71770;BME280;66386;52.122;5.420;2023-09-12T00:47:04;101385.03;;;18.99;92.01
71770;BME280;66386;52.122;5.420;2023-09-12T00:49:32;101386.91;;;18.97;91.93
71770;BME280;66386;52.122;5.420;2023-09-12T00:51:59;101392.28;;;18.94;91.84
71770;BME280;66386;52.122;5.420;2023-09-12T00:54:26;101389.03;;;18.90;91.88
71770;BME280;66386;52.122;5.420;2023-09-12T00:56:53;101395.28;;;18.88;92.05
71770;BME280;66386;52.122;5.420;2023-09-12T00:59:20;101389.50;;;18.82;92.26
71770;BME280;66386;52.122;5.420;2023-09-12T01:01:47;101396.22;;;18.72;92.36
71770;BME280;66386;52.122;5.420;2023-09-12T01:04:14;101390.44;;;18.67;93.01
71770;BME280;66386;52.122;5.420;2023-09-12T01:07:00;101399.47;;;18.61;93.09
71770;BME280;66386;52.122;5.420;2023-09-12T01:09:27;101387.56;;;18.57;93.66
71770;BME280;66386;52.122;5.420;2023-09-12T01:11:54;101392.06;;;18.55;94.18
71770;BME280;66386;52.122;5.420;2023-09-12T01:14:20;101386.94;;;18.54;94.09
71770;BME280;66386;52.122;5.420;2023-09-12T01:16:47;101383.88;;;18.47;94.01
71770;BME280;66386;52.122;5.420;2023-09-12T01:19:14;101389.19;;;18.45;94.22
71770;BME280;66386;52.122;5.420;2023-09-12T01:29:39;101395.63;;;18.25;94.29
71770;BME280;66386;52.122;5.420;2023-09-12T01:32:06;101401.06;;;18.21;94.33
71770;BME280;66386;52.122;5.420;2023-09-12T01:34:33;101389.75;;;18.22;94.67
71770;BME280;66386;52.122;5.420;2023-09-12T01:36:59;101382.97;;;18.19;94.62
71770;BME280;66386;52.122;5.420;2023-09-12T01:39:26;101391.44;;;18.23;94.54
71770;BME280;66386;52.122;5.420;2023-09-12T01:41:53;101384.53;;;18.22;94.46
71770;BME280;66386;52.122;5.420;2023-09-12T01:44:24;101381.94;;;18.22;94.33
71770;BME280;66386;52.122;5.420;2023-09-12T01:46:51;101381.22;;;18.20;94.16
71770;BME280;66386;52.122;5.420;2023-09-12T01:49:22;101380.25;;;18.21;93.97
71770;BME280;66386;52.122;5.420;2023-09-12T01:51:51;101376.94;;;18.19;93.67
71770;BME280;66386;52.122;5.420;2023-09-12T01:54:19;101384.81;;;18.17;93.72
71770;BME280;66386;52.122;5.420;2023-09-12T01:56:47;101387.53;;;18.16;93.33
71770;BME280;66386;52.122;5.420;2023-09-12T01:59:14;101375.53;;;18.13;93.32
71770;BME280;66386;52.122;5.420;2023-09-12T02:01:40;101377.31;;;18.12;93.77
71770;BME280;66386;52.122;5.420;2023-09-12T02:04:08;101378.94;;;18.13;93.49
71770;BME280;66386;52.122;5.420;2023-09-12T02:06:35;101378.22;;;18.11;93.51
71770;BME280;66386;52.122;5.420;2023-09-12T02:09:02;101375.72;;;18.10;93.39
71770;BME280;66386;52.122;5.420;2023-09-12T02:11:29;101368.00;;;18.08;93.42
71770;BME280;66386;52.122;5.420;2023-09-12T02:13:55;101364.66;;;18.06;93.14
71770;BME280;66386;52.122;5.420;2023-09-12T02:16:22;101367.28;;;18.06;93.25
71770;BME280;66386;52.122;5.420;2023-09-12T02:18:48;101364.66;;;18.06;93.57
71770;BME280;66386;52.122;5.420;2023-09-12T02:21:15;101370.03;;;18.03;93.77
71770;BME280;66386;52.122;5.420;2023-09-12T02:23:44;101370.78;;;18.05;93.92
71770;BME280;66386;52.122;5.420;2023-09-12T02:26:11;101364.75;;;18.05;94.21
71770;BME280;66386;52.122;5.420;2023-09-12T02:28:37;101366.41;;;18.06;94.66
71770;BME280;66386;52.122;5.420;2023-09-12T02:31:10;101371.63;;;18.06;94.54
71770;BME280;66386;52.122;5.420;2023-09-12T02:33:38;101362.31;;;18.02;94.65
71770;BME280;66386;52.122;5.420;2023-09-12T02:36:05;101369.41;;;18.00;95.07
71770;BME280;66386;52.122;5.420;2023-09-12T02:38:32;101378.03;;;18.00;95.11
71770;BME280;66386;52.122;5.420;2023-09-12T02:40:58;101378.13;;;17.99;95.43
71770;BME280;66386;52.122;5.420;2023-09-12T02:43:25;101380.06;;;17.95;95.76
71770;BME280;66386;52.122;5.420;2023-09-12T02:45:51;101379.22;;;17.94;95.82
71770;BME280;66386;52.122;5.420;2023-09-12T02:48:18;101375.06;;;17.92;95.93
71770;BME280;66386;52.122;5.420;2023-09-12T02:50:45;101379.41;;;17.91;95.86
71770;BME280;66386;52.122;5.420;2023-09-12T02:53:11;101377.06;;;17.87;95.84
71770;BME280;66386;52.122;5.420;2023-09-12T02:55:42;101378.81;;;17.86;96.03
71770;BME280;66386;52.122;5.420;2023-09-12T02:58:09;101380.75;;;17.83;95.75
71770;BME280;66386;52.122;5.420;2023-09-12T03:00:39;101374.00;;;17.80;95.40
71770;BME280;66386;52.122;5.420;2023-09-12T03:03:09;101370.72;;;17.76;95.76
71770;BME280;66386;52.122;5.420;2023-09-12T03:05:36;101376.84;;;17.75;95.72
71770;BME280;66386;52.122;5.420;2023-09-12T03:08:03;101381.47;;;17.70;95.49
71770;BME280;66386;52.122;5.420;2023-09-12T03:10:30;101384.09;;;17.70;95.63
71770;BME280;66386;52.122;5.420;2023-09-12T03:12:57;101379.88;;;17.68;95.16
71770;BME280;66386;52.122;5.420;2023-09-12T03:15:23;101389.56;;;17.66;95.30
71770;BME280;66386;52.122;5.420;2023-09-12T03:17:50;101378.56;;;17.60;94.92
71770;BME280;66386;52.122;5.420;2023-09-12T03:20:17;101373.47;;;17.59;94.87
71770;BME280;66386;52.122;5.420;2023-09-12T03:22:45;101380.63;;;17.55;94.79
71770;BME280;66386;52.122;5.420;2023-09-12T03:25:12;101380.84;;;17.51;94.51
71770;BME280;66386;52.122;5.420;2023-09-12T03:27:38;101382.50;;;17.37;94.60
71770;BME280;66386;52.122;5.420;2023-09-12T03:30:05;101383.75;;;17.30;94.78
71770;BME280;66386;52.122;5.420;2023-09-12T03:32:32;101379.41;;;17.31;95.17
71770;BME280;66386;52.122;5.420;2023-09-12T03:34:59;101371.63;;;17.31;95.18
71770;BME280;66386;52.122;5.420;2023-09-12T03:37:25;101368.84;;;17.34;95.16
71770;BME280;66386;52.122;5.420;2023-09-12T03:39:53;101370.78;;;17.30;95.13
71770;BME280;66386;52.122;5.420;2023-09-12T03:42:20;101366.34;;;17.32;95.28
71770;BME280;66386;52.122;5.420;2023-09-12T03:44:46;101373.44;;;17.28;95.45
71770;BME280;66386;52.122;5.420;2023-09-12T03:47:13;101376.13;;;17.27;95.37
71770;BME280;66386;52.122;5.420;2023-09-12T03:49:40;101377.19;;;17.24;95.22
71770;BME280;66386;52.122;5.420;2023-09-12T03:52:06;101364.09;;;17.26;95.50
71770;BME280;66386;52.122;5.420;2023-09-12T03:54:33;101364.75;;;17.30;95.75
71770;BME280;66386;52.122;5.420;2023-09-12T03:56:59;101368.94;;;17.32;95.56
71770;BME280;66386;52.122;5.420;2023-09-12T03:59:26;101361.06;;;17.34;95.40
71770;BME280;66386;52.122;5.420;2023-09-12T04:01:52;101370.44;;;17.36;95.25
71770;BME280;66386;52.122;5.420;2023-09-12T04:04:19;101364.47;;;17.34;95.01
71770;BME280;66386;52.122;5.420;2023-09-12T04:06:45;101367.25;;;17.31;95.28
71770;BME280;66386;52.122;5.420;2023-09-12T04:09:13;101368.53;;;17.24;95.30
71770;BME280;66386;52.122;5.420;2023-09-12T04:11:40;101369.38;;;17.24;95.37
71770;BME280;66386;52.122;5.420;2023-09-12T04:14:14;101368.63;;;17.22;95.63
71770;BME280;66386;52.122;5.420;2023-09-12T04:16:41;101360.00;;;17.22;95.70
71770;BME280;66386;52.122;5.420;2023-09-12T04:19:08;101365.38;;;17.19;95.93
71770;BME280;66386;52.122;5.420;2023-09-12T04:21:35;101350.97;;;17.13;95.92
71770;BME280;66386;52.122;5.420;2023-09-12T04:24:01;101354.56;;;17.10;96.17
71770;BME280;66386;52.122;5.420;2023-09-12T04:26:28;101354.22;;;17.17;96.12
71770;BME280;66386;52.122;5.420;2023-09-12T04:28:54;101342.81;;;17.19;96.00
71770;BME280;66386;52.122;5.420;2023-09-12T04:31:20;101341.81;;;17.22;96.15
71770;BME280;66386;52.122;5.420;2023-09-12T04:33:47;101346.25;;;17.20;96.03
71770;BME280;66386;52.122;5.420;2023-09-12T04:36:14;101335.84;;;17.20;96.40
71770;BME280;66386;52.122;5.420;2023-09-12T04:38:40;101342.00;;;17.19;96.04
71770;BME280;66386;52.122;5.420;2023-09-12T04:41:07;101348.00;;;17.19;96.08
71770;BME280;66386;52.122;5.420;2023-09-12T04:43:34;101348.75;;;17.21;95.84
71770;BME280;66386;52.122;5.420;2023-09-12T04:46:01;101340.13;;;17.21;95.91
71770;BME280;66386;52.122;5.420;2023-09-12T04:48:27;101344.50;;;17.20;95.57
71770;BME280;66386;52.122;5.420;2023-09-12T04:50:55;101341.03;;;17.20;96.11
71770;BME280;66386;52.122;5.420;2023-09-12T04:53:22;101348.91;;;17.18;96.03
71770;BME280;66386;52.122;5.420;2023-09-12T04:55:48;101343.72;;;17.18;95.90
71770;BME280;66386;52.122;5.420;2023-09-12T04:58:15;101353.28;;;17.18;96.55
71770;BME280;66386;52.122;5.420;2023-09-12T05:00:41;101337.97;;;17.13;96.41
71770;BME280;66386;52.122;5.420;2023-09-12T05:03:08;101340.97;;;17.05;96.74
71770;BME280;66386;52.122;5.420;2023-09-12T05:05:35;101341.06;;;17.04;97.07
71770;BME280;66386;52.122;5.420;2023-09-12T05:08:05;101336.72;;;17.04;97.59
71770;BME280;66386;52.122;5.420;2023-09-12T05:10:31;101346.16;;;17.05;97.56
71770;BME280;66386;52.122;5.420;2023-09-12T05:12:58;101346.16;;;17.05;97.53
71770;BME280;66386;52.122;5.420;2023-09-12T05:15:24;101346.25;;;17.04;97.08
71770;BME280;66386;52.122;5.420;2023-09-12T05:17:51;101345.53;;;17.02;97.27
71770;BME280;66386;52.122;5.420;2023-09-12T05:20:18;101357.09;;;16.96;97.27
71770;BME280;66386;52.122;5.420;2023-09-12T05:22:44;101354.66;;;16.93;97.82
71770;BME280;66386;52.122;5.420;2023-09-12T05:25:11;101353.16;;;16.89;97.86
71770;BME280;66386;52.122;5.420;2023-09-12T05:27:37;101352.25;;;16.90;97.65
71770;BME280;66386;52.122;5.420;2023-09-12T05:30:04;101357.53;;;16.88;98.06
71770;BME280;66386;52.122;5.420;2023-09-12T05:32:31;101354.94;;;16.88;97.82
71770;BME280;66386;52.122;5.420;2023-09-12T05:34:58;101364.31;;;16.91;97.82
71770;BME280;66386;52.122;5.420;2023-09-12T05:37:40;101363.63;;;16.87;97.70
71770;BME280;66386;52.122;5.420;2023-09-12T05:40:07;101359.31;;;16.86;97.42
71770;BME280;66386;52.122;5.420;2023-09-12T05:42:34;101352.38;;;16.87;97.39
71770;BME280;66386;52.122;5.420;2023-09-12T05:45:00;101360.94;;;16.89;97.18
71770;BME280;66386;52.122;5.420;2023-09-12T05:47:27;101363.53;;;16.89;97.47
71770;BME280;66386;52.122;5.420;2023-09-12T05:49:54;101359.03;;;16.92;97.36
71770;BME280;66386;52.122;5.420;2023-09-12T05:52:20;101350.22;;;16.95;96.93
71770;BME280;66386;52.122;5.420;2023-09-12T05:54:47;101351.72;;;16.99;97.08
71770;BME280;66386;52.122;5.420;2023-09-12T05:57:13;101346.25;;;17.04;97.02
71770;BME280;66386;52.122;5.420;2023-09-12T05:59:40;101349.44;;;17.09;96.90
71770;BME280;66386;52.122;5.420;2023-09-12T06:02:07;101351.88;;;17.12;96.89
71770;BME280;66386;52.122;5.420;2023-09-12T06:04:36;101365.59;;;17.14;96.85
71770;BME280;66386;52.122;5.420;2023-09-12T06:07:03;101364.50;;;17.18;96.87
71770;BME280;66386;52.122;5.420;2023-09-12T06:09:29;101365.38;;;17.19;96.87
71770;BME280;66386;52.122;5.420;2023-09-12T06:11:56;101380.78;;;17.22;96.89
71770;BME280;66386;52.122;5.420;2023-09-12T06:14:23;101383.38;;;17.22;96.81
71770;BME280;66386;52.122;5.420;2023-09-12T06:16:49;101383.38;;;17.22;97.02
71770;BME280;66386;52.122;5.420;2023-09-12T06:19:16;101391.00;;;17.25;96.76
71770;BME280;66386;52.122;5.420;2023-09-12T06:21:44;101386.97;;;17.19;97.47
71770;BME280;66386;52.122;5.420;2023-09-12T06:24:16;101388.47;;;17.23;97.57
71770;BME280;66386;52.122;5.420;2023-09-12T06:26:43;101392.81;;;17.23;97.78
71770;BME280;66386;52.122;5.420;2023-09-12T06:29:10;101392.81;;;17.23;97.91
71770;BME280;66386;52.122;5.420;2023-09-12T06:31:36;101397.78;;;17.27;97.78
71770;BME280;66386;52.122;5.420;2023-09-12T06:34:03;101392.97;;;17.36;98.07
71770;BME280;66386;52.122;5.420;2023-09-12T06:36:30;101397.81;;;17.42;97.73
71770;BME280;66386;52.122;5.420;2023-09-12T06:38:57;101395.53;;;17.52;97.54
71770;BME280;66386;52.122;5.420;2023-09-12T06:41:25;101394.44;;;17.56;97.53
71770;BME280;66386;52.122;5.420;2023-09-12T06:43:53;101388.88;;;17.62;97.36
71770;BME280;66386;52.122;5.420;2023-09-12T06:46:19;101391.88;;;17.70;97.33
71770;BME280;66386;52.122;5.420;2023-09-12T06:48:46;101395.63;;;17.80;97.75
71770;BME280;66386;52.122;5.420;2023-09-12T06:51:12;101399.72;;;17.85;97.58
71770;BME280;66386;52.122;5.420;2023-09-12T06:53:43;101390.75;;;17.90;97.67
71770;BME280;66386;52.122;5.420;2023-09-12T06:56:10;101394.56;;;17.99;97.98
71770;BME280;66386;52.122;5.420;2023-09-12T06:58:37;101395.97;;;18.05;97.62
71770;BME280;66386;52.122;5.420;2023-09-12T07:01:04;101393.44;;;18.03;97.70
71770;BME280;66386;52.122;5.420;2023-09-12T07:03:33;101394.28;;;18.04;98.08
71770;BME280;66386;52.122;5.420;2023-09-12T07:06:00;101404.41;;;18.08;98.15
71770;BME280;66386;52.122;5.420;2023-09-12T07:08:29;101402.22;;;18.17;98.02
71770;BME280;66386;52.122;5.420;2023-09-12T07:10:56;101405.53;;;18.19;98.12
71770;BME280;66386;52.122;5.420;2023-09-12T07:13:24;101406.13;;;18.24;98.01
71770;BME280;66386;52.122;5.420;2023-09-12T07:15:50;101404.06;;;18.29;97.92
71770;BME280;66386;52.122;5.420;2023-09-12T07:18:17;101395.34;;;18.30;97.35
71770;BME280;66386;52.122;5.420;2023-09-12T07:20:45;101392.16;;;18.25;97.36
71770;BME280;66386;52.122;5.420;2023-09-12T07:23:11;101386.56;;;18.31;97.94
71770;BME280;66386;52.122;5.420;2023-09-12T07:25:40;101389.75;;;18.36;97.85
71770;BME280;66386;52.122;5.420;2023-09-12T07:28:08;101398.94;;;18.42;97.64
71770;BME280;66386;52.122;5.420;2023-09-12T07:30:35;101396.97;;;18.45;97.39
71770;BME280;66386;52.122;5.420;2023-09-12T07:33:03;101398.47;;;18.49;97.59
71770;BME280;66386;52.122;5.420;2023-09-12T07:35:30;101395.13;;;18.47;97.16
71770;BME280;66386;52.122;5.420;2023-09-12T07:37:57;101399.59;;;18.45;97.41
71770;BME280;66386;52.122;5.420;2023-09-12T07:40:24;101396.06;;;18.46;97.49
71770;BME280;66386;52.122;5.420;2023-09-12T07:42:50;101402.19;;;18.45;97.75
71770;BME280;66386;52.122;5.420;2023-09-12T07:45:17;101409.56;;;18.53;97.88
71770;BME280;66386;52.122;5.420;2023-09-12T07:47:43;101405.25;;;18.66;98.49
71770;BME280;66386;52.122;5.420;2023-09-12T07:50:10;101405.13;;;18.82;98.28
71770;BME280;66386;52.122;5.420;2023-09-12T07:52:36;101407.50;;;19.14;99.10
71770;BME280;66386;52.122;5.420;2023-09-12T07:55:04;101403.69;;;19.73;98.69
71770;BME280;66386;52.122;5.420;2023-09-12T07:57:30;101404.97;;;20.06;96.17
71770;BME280;66386;52.122;5.420;2023-09-12T07:59:57;101404.38;;;20.15;93.27
71770;BME280;66386;52.122;5.420;2023-09-12T08:02:24;101404.97;;;20.19;92.36
71770;BME280;66386;52.122;5.420;2023-09-12T08:04:50;101405.69;;;20.34;92.03
71770;BME280;66386;52.122;5.420;2023-09-12T08:07:17;101409.53;;;20.67;91.34
71770;BME280;66386;52.122;5.420;2023-09-12T08:10:02;101424.31;;;20.92;89.67
71770;BME280;66386;52.122;5.420;2023-09-12T08:12:29;101425.72;;;21.09;88.25
71770;BME280;66386;52.122;5.420;2023-09-12T08:14:55;101424.28;;;21.29;87.94
71770;BME280;66386;52.122;5.420;2023-09-12T08:17:23;101427.19;;;21.49;86.96
71770;BME280;66386;52.122;5.420;2023-09-12T08:19:50;101426.91;;;21.65;87.23
71770;BME280;66386;52.122;5.420;2023-09-12T08:22:16;101433.16;;;21.86;85.15
71770;BME280;66386;52.122;5.420;2023-09-12T08:24:43;101430.78;;;21.94;85.84
71770;BME280;66386;52.122;5.420;2023-09-12T08:27:10;101430.00;;;22.17;83.38
71770;BME280;66386;52.122;5.420;2023-09-12T08:29:36;101429.16;;;22.27;84.25
71770;BME280;66386;52.122;5.420;2023-09-12T08:32:03;101438.00;;;22.49;84.94
71770;BME280;66386;52.122;5.420;2023-09-12T08:34:30;101433.34;;;22.53;82.74
71770;BME280;66386;52.122;5.420;2023-09-12T08:36:56;101437.28;;;22.47;82.92
71770;BME280;66386;52.122;5.420;2023-09-12T08:39:25;101427.75;;;22.57;81.53
71770;BME280;66386;52.122;5.420;2023-09-12T08:41:53;101436.34;;;22.71;81.49
71770;BME280;66386;52.122;5.420;2023-09-12T08:44:21;101427.84;;;22.90;80.86
71770;BME280;66386;52.122;5.420;2023-09-12T08:46:48;101427.34;;;22.96;80.33
71770;BME280;66386;52.122;5.420;2023-09-12T08:49:15;101426.78;;;22.81;80.19
71770;BME280;66386;52.122;5.420;2023-09-12T08:51:43;101426.41;;;22.97;80.48
71770;BME280;66386;52.122;5.420;2023-09-12T08:54:09;101433.25;;;23.21;78.16
71770;BME280;66386;52.122;5.420;2023-09-12T08:56:39;101434.16;;;23.31;77.51
71770;BME280;66386;52.122;5.420;2023-09-12T08:59:06;101436.25;;;23.16;78.04
71770;BME280;66386;52.122;5.420;2023-09-12T09:01:33;101430.00;;;23.28;78.26
71770;BME280;66386;52.122;5.420;2023-09-12T09:04:02;101426.09;;;23.23;78.83
71770;BME280;66386;52.122;5.420;2023-09-12T09:06:31;101419.88;;;23.24;77.58
71770;BME280;66386;52.122;5.420;2023-09-12T09:09:00;101429.53;;;23.77;75.81
71770;BME280;66386;52.122;5.420;2023-09-12T09:11:26;101437.44;;;23.98;74.91
71770;BME280;66386;52.122;5.420;2023-09-12T09:13:54;101434.34;;;24.14;73.83
71770;BME280;66386;52.122;5.420;2023-09-12T09:16:22;101426.75;;;24.20;73.25
71770;BME280;66386;52.122;5.420;2023-09-12T09:19:03;101434.06;;;24.48;73.39
71770;BME280;66386;52.122;5.420;2023-09-12T09:21:32;101442.28;;;24.33;71.67
71770;BME280;66386;52.122;5.420;2023-09-12T09:24:01;101445.31;;;24.29;73.01
71770;BME280;66386;52.122;5.420;2023-09-12T09:26:44;101442.66;;;23.56;73.29
71770;BME280;66386;52.122;5.420;2023-09-12T09:29:14;101445.41;;;23.75;74.47
71770;BME280;66386;52.122;5.420;2023-09-12T09:31:43;101453.34;;;24.27;73.93
71770;BME280;66386;52.122;5.420;2023-09-12T09:34:14;101450.94;;;24.86;71.83
71770;BME280;66386;52.122;5.420;2023-09-12T09:36:46;101443.88;;;24.96;70.84
71770;BME280;66386;52.122;5.420;2023-09-12T09:39:13;101453.75;;;24.63;71.00
71770;BME280;66386;52.122;5.420;2023-09-12T09:41:40;101449.50;;;24.31;70.86
71770;BME280;66386;52.122;5.420;2023-09-12T09:44:07;101446.59;;;24.03;72.32
71770;BME280;66386;52.122;5.420;2023-09-12T09:46:35;101456.13;;;24.04;74.26
71770;BME280;66386;52.122;5.420;2023-09-12T09:49:03;101447.28;;;24.36;74.09
71770;BME280;66386;52.122;5.420;2023-09-12T09:51:32;101445.66;;;24.45;72.32
71770;BME280;66386;52.122;5.420;2023-09-12T09:53:59;101454.22;;;24.37;71.26
71770;BME280;66386;52.122;5.420;2023-09-12T09:56:27;101452.94;;;24.01;72.56
71770;BME280;66386;52.122;5.420;2023-09-12T09:58:54;101455.16;;;24.05;74.01
71770;BME280;66386;52.122;5.420;2023-09-12T10:01:25;101444.94;;;24.12;72.73
71770;BME280;66386;52.122;5.420;2023-09-12T10:03:57;101446.25;;;24.49;73.76
71770;BME280;66386;52.122;5.420;2023-09-12T10:06:26;101454.25;;;24.78;72.09
71770;BME280;66386;52.122;5.420;2023-09-12T10:08:54;101451.63;;;24.98;72.24
71770;BME280;66386;52.122;5.420;2023-09-12T10:11:23;101454.16;;;25.09;70.32
71770;BME280;66386;52.122;5.420;2023-09-12T10:13:55;101462.81;;;24.80;69.46
71770;BME280;66386;52.122;5.420;2023-09-12T10:16:23;101454.88;;;24.70;70.94
71770;BME280;66386;52.122;5.420;2023-09-12T10:19:16;101456.19;;;24.86;69.52
71770;BME280;66386;52.122;5.420;2023-09-12T10:21:49;101464.63;;;24.80;70.42
71770;BME280;66386;52.122;5.420;2023-09-12T10:24:16;101460.16;;;24.70;69.35
71770;BME280;66386;52.122;5.420;2023-09-12T10:26:44;101465.47;;;25.00;70.74
71770;BME280;66386;52.122;5.420;2023-09-12T10:29:15;101457.44;;;25.01;70.73
71770;BME280;66386;52.122;5.420;2023-09-12T10:31:42;101440.19;;;25.28;69.14
71770;BME280;66386;52.122;5.420;2023-09-12T10:34:12;101437.03;;;25.44;68.46
71770;BME280;66386;52.122;5.420;2023-09-12T10:36:44;101442.13;;;25.65;66.67
71770;BME280;66386;52.122;5.420;2023-09-12T10:39:12;101442.38;;;25.72;66.84
71770;BME280;66386;52.122;5.420;2023-09-12T10:41:40;101446.94;;;25.79;66.26
71770;BME280;66386;52.122;5.420;2023-09-12T10:44:17;101442.38;;;25.72;66.77
71770;BME280;66386;52.122;5.420;2023-09-12T10:46:45;101455.88;;;25.39;67.20
71770;BME280;66386;52.122;5.420;2023-09-12T10:49:13;101461.84;;;24.91;67.40
71770;BME280;66386;52.122;5.420;2023-09-12T10:51:42;101466.34;;;24.38;69.86
71770;BME280;66386;52.122;5.420;2023-09-12T10:54:14;101463.88;;;24.37;70.40
71770;BME280;66386;52.122;5.420;2023-09-12T10:56:41;101465.41;;;24.70;68.56
71770;BME280;66386;52.122;5.420;2023-09-12T10:59:09;101462.69;;;24.82;68.53
71770;BME280;66386;52.122;5.420;2023-09-12T11:01:37;101459.28;;;25.11;68.99
71770;BME280;66386;52.122;5.420;2023-09-12T11:06:50;101459.84;;;25.43;65.99
71770;BME280;66386;52.122;5.420;2023-09-12T11:09:18;101464.13;;;25.74;66.38
71770;BME280;66386;52.122;5.420;2023-09-12T11:11:47;101455.53;;;25.82;66.50
71770;BME280;66386;52.122;5.420;2023-09-12T11:14:14;101453.06;;;25.70;66.25
71770;BME280;66386;52.122;5.420;2023-09-12T11:16:42;101452.53;;;25.47;66.48
71770;BME280;66386;52.122;5.420;2023-09-12T11:19:20;101451.66;;;25.17;67.36
71770;BME280;66386;52.122;5.420;2023-09-12T11:21:52;101439.88;;;25.21;67.40
71770;BME280;66386;52.122;5.420;2023-09-12T11:24:20;101437.28;;;25.51;66.28
71770;BME280;66386;52.122;5.420;2023-09-12T11:29:37;101415.97;;;25.34;65.28
71770;BME280;66386;52.122;5.420;2023-09-12T11:32:06;101423.03;;;25.34;65.51
71770;BME280;66386;52.122;5.420;2023-09-12T11:34:38;101428.13;;;25.25;64.27
71770;BME280;66386;52.122;5.420;2023-09-12T11:37:05;101419.09;;;24.89;64.52
71770;BME280;66386;52.122;5.420;2023-09-12T11:39:34;101416.59;;;24.87;67.54
71770;BME280;66386;52.122;5.420;2023-09-12T11:42:02;101423.25;;;25.01;66.61
71770;BME280;66386;52.122;5.420;2023-09-12T11:44:30;101418.56;;;24.85;64.19
71770;BME280;66386;52.122;5.420;2023-09-12T11:47:01;101426.31;;;25.06;65.84
71770;BME280;66386;52.122;5.420;2023-09-12T11:49:37;101427.06;;;25.38;65.36
71770;BME280;66386;52.122;5.420;2023-09-12T11:52:11;101423.72;;;25.55;63.25
71770;BME280;66386;52.122;5.420;2023-09-12T11:54:43;101420.38;;;25.63;64.45
71770;BME280;66386;52.122;5.420;2023-09-12T11:57:14;101425.56;;;25.92;63.49
71770;BME280;66386;52.122;5.420;2023-09-12T11:59:43;101419.19;;;26.05;63.50
71770;BME280;66386;52.122;5.420;2023-09-12T12:02:15;101429.03;;;26.40;62.08
71770;BME280;66386;52.122;5.420;2023-09-12T12:04:42;101426.88;;;26.81;61.82
71770;BME280;66386;52.122;5.420;2023-09-12T12:07:10;101431.09;;;26.64;59.55
71770;BME280;66386;52.122;5.420;2023-09-12T12:09:38;101430.63;;;26.51;60.92
71770;BME280;66386;52.122;5.420;2023-09-12T12:12:12;101421.19;;;26.48;60.57
71770;BME280;66386;52.122;5.420;2023-09-12T12:14:40;101429.84;;;26.41;60.87
71770;BME280;66386;52.122;5.420;2023-09-12T12:17:11;101422.06;;;26.49;61.04
71770;BME280;66386;52.122;5.420;2023-09-12T12:19:38;101418.50;;;26.68;60.40
71770;BME280;66386;52.122;5.420;2023-09-12T12:22:06;101412.22;;;26.69;59.21
71770;BME280;66386;52.122;5.420;2023-09-12T12:24:39;101411.56;;;26.85;60.01
71770;BME280;66386;52.122;5.420;2023-09-12T12:27:06;101408.34;;;27.09;60.80
71770;BME280;66386;52.122;5.420;2023-09-12T12:29:36;101405.63;;;26.83;58.83
71770;BME280;66386;52.122;5.420;2023-09-12T12:32:04;101403.66;;;26.57;60.45
71770;BME280;66386;52.122;5.420;2023-09-12T12:34:36;101401.31;;;26.36;59.15
71770;BME280;66386;52.122;5.420;2023-09-12T12:37:28;101403.38;;;26.33;60.03
71770;BME280;66386;52.122;5.420;2023-09-12T12:39:57;101400.41;;;26.45;61.17
71770;BME280;66386;52.122;5.420;2023-09-12T12:42:28;101398.81;;;26.35;58.52
71770;BME280;66386;52.122;5.420;2023-09-12T12:45:15;101393.59;;;26.25;58.81
71770;BME280;66386;52.122;5.420;2023-09-12T12:47:43;101393.28;;;26.28;61.16
71770;BME280;66386;52.122;5.420;2023-09-12T12:50:20;101393.06;;;26.49;59.61
71770;BME280;66386;52.122;5.420;2023-09-12T12:52:48;101401.28;;;26.64;60.25
71770;BME280;66386;52.122;5.420;2023-09-12T12:55:15;101389.88;;;26.73;58.20
71770;BME280;66386;52.122;5.420;2023-09-12T12:57:43;101392.44;;;26.37;56.88
71770;BME280;66386;52.122;5.420;2023-09-12T13:00:15;101399.16;;;26.22;59.25
71770;BME280;66386;52.122;5.420;2023-09-12T13:02:43;101390.84;;;26.44;57.52
71770;BME280;66386;52.122;5.420;2023-09-12T13:05:28;101397.03;;;26.25;56.75
71770;BME280;66386;52.122;5.420;2023-09-12T13:07:55;101399.16;;;26.22;56.31